EB2EMZ-5 Weather Reports


Display with metric or nautical units.
time (UTC)temp
F
wind
direction
speed
MPH
gust
MPH
rain 1hr
in
rain 24hr
in
rain mn
in
humidity
%
barometer
mb
20260510114759 97 0.0 0.0 0.00 0.00 0.00 31 1006.5
20260510114259 100 0.0 0.0 0.00 0.00 0.00 36 1010.2
20260510113759 100 0.0 0.0 0.00 0.00 0.00 36 1010.3
20260510113259 101 0.0 0.0 0.00 0.00 0.00 37 1010.3
20260510112759 101 0.0 0.0 0.00 0.00 0.00 37 1010.3
20260510112259 101 0.0 0.0 0.00 0.00 0.00 37 1010.2
20260510111759 102 0.0 0.0 0.00 0.00 0.00 38 1010.1
20260510111259 102 0.0 0.0 0.00 0.00 0.00 38 1010.0
20260510110750 102 0.0 0.0 0.00 0.00 0.00 38 1010.3
20260510110250 102 0.0 0.0 0.00 0.00 0.00 39 1010.3
20260510105750 101 0.0 0.0 0.00 0.00 0.00 39 1010.3
20260510105250 101 0.0 0.0 0.00 0.00 0.00 39 1010.4
20260510104749 101 0.0 0.0 0.00 0.00 0.00 39 1010.5
20260510104250 101 0.0 0.0 0.00 0.00 0.00 40 1010.6
20260510103750 101 0.0 0.0 0.00 0.00 0.00 40 1010.6
20260510103250 101 0.0 0.0 0.00 0.00 0.00 40 1010.8
20260510102749 101 0.0 0.0 0.00 0.00 0.00 41 1010.7
20260510102250 100 0.0 0.0 0.00 0.00 0.00 41 1010.8
20260510101750 100 0.0 0.0 0.00 0.00 0.00 41 1010.9
20260510101250 99 0.0 0.0 0.00 0.00 0.00 42 1010.9
20260510100750 99 0.0 0.0 0.00 0.00 0.00 43 1011.0
20260510100250 97 0.0 0.0 0.00 0.00 0.00 43 1011.1
20260510095749 96 0.0 0.0 0.00 0.00 0.00 44 1011.0
20260510095250 94 0.0 0.0 0.00 0.00 0.00 44 1011.1
20260510094749 92 0.0 0.0 0.00 0.00 0.00 45 1011.2
20260510094249 90 0.0 0.0 0.00 0.00 0.00 45 1011.2
20260510093749 88 0.0 0.0 0.00 0.00 0.00 46 1011.2
20260510093249 86 0.0 0.0 0.00 0.00 0.00 46 1011.3
20260510092749 85 0.0 0.0 0.00 0.00 0.00 46 1011.2
20260510092249 84 0.0 0.0 0.00 0.00 0.00 47 1011.2
20260510091749 82 0.0 0.0 0.00 0.00 0.00 47 1011.3
20260510091250 82 0.0 0.0 0.00 0.00 0.00 48 1011.2
20260510090750 81 0.0 0.0 0.00 0.00 0.00 48 1011.3
20260510090249 80 0.0 0.0 0.00 0.00 0.00 48 1011.2
20260510085749 79 0.0 0.0 0.00 0.00 0.00 49 1011.4
20260510085250 78 0.0 0.0 0.00 0.00 0.00 49 1011.4
20260510084749 77 0.0 0.0 0.00 0.00 0.00 50 1011.4
20260510084249 76 0.0 0.0 0.00 0.00 0.00 50 1011.4
20260510081231 70 0.0 0.0 0.00 0.00 0.00 56 978.6